Time;durP1;ratioP1;P1;durP2;ratioP2;P2;SDS_P1;SDS_P2;PMS_P1;PMS_P2;Temp;Humidity;BMP_temperature;BMP_pressure;BME280_temperature;BME280_humidity;BME280_pressure;Samples;Min_cycle;Max_cycle;Signal;HPM_P1;HPM_P2
2021/06/20 00:01:51;;;;;;;7.00;4.33;;;;;;;;;;5113790;28;20475;-59
2021/06/20 00:04:19;;;;;;;4.57;4.27;;;;;;;;;;5114079;28;20461;-60
2021/06/20 00:06:49;;;;;;;5.37;4.97;;;;;;;;;;5114330;28;21012;-59
2021/06/20 00:09:17;;;;;;;5.70;4.47;;;;;;;;;;5113998;28;20425;-58
2021/06/20 00:11:48;;;;;;;4.77;4.40;;;;;;;;;;5113766;28;20863;-59
2021/06/20 00:14:15;;;;;;;5.47;4.10;;;;;;;;;;5114009;28;20476;-58
2021/06/20 00:16:44;;;;;;;5.93;4.27;;;;;;;;;;5114057;28;20494;-60
2021/06/20 00:19:11;;;;;;;4.47;4.07;;;;;;;;;;5113513;28;20952;-58
2021/06/20 00:21:39;;;;;;;5.20;4.77;;;;;;;;;;5113727;28;20438;-59
2021/06/20 00:24:06;;;;;;;7.27;4.63;;;;;;;;;;5116163;28;20464;-58
2021/06/20 00:26:34;;;;;;;4.60;4.10;;;;;;;;;;5117921;28;20596;-58
2021/06/20 00:29:01;;;;;;;4.47;4.13;;;;;;;;;;5117827;28;20989;-58
2021/06/20 00:31:28;;;;;;;4.90;4.40;;;;;;;;;;5118163;28;20445;-58
2021/06/20 00:33:57;;;;;;;4.70;4.30;;;;;;;;;;5117734;28;20537;-58
2021/06/20 00:36:24;;;;;;;4.83;4.40;;;;;;;;;;5118169;28;20493;-59
2021/06/20 00:38:51;;;;;;;4.93;4.57;;;;;;;;;;5117887;28;20843;-58
2021/06/20 00:41:18;;;;;;;4.73;4.37;;;;;;;;;;5118010;28;20445;-59
2021/06/20 00:43:45;;;;;;;4.87;4.47;;;;;;;;;;5117504;28;20471;-59
2021/06/20 00:46:13;;;;;;;5.10;4.70;;;;;;;;;;5117812;28;20449;-58
2021/06/20 00:48:40;;;;;;;5.83;5.00;;;;;;;;;;5117649;28;20850;-58
2021/06/20 00:51:09;;;;;;;4.67;4.27;;;;;;;;;;5117350;28;20482;-58
2021/06/20 00:53:36;;;;;;;5.70;4.70;;;;;;;;;;5117263;28;20535;-58
2021/06/20 00:56:03;;;;;;;5.20;4.80;;;;;;;;;;5117302;28;20540;-58
2021/06/20 00:58:31;;;;;;;5.27;4.77;;;;;;;;;;5117404;28;20445;-58
2021/06/20 01:00:58;;;;;;;5.57;5.10;;;;;;;;;;5117530;28;20501;-58
2021/06/20 01:03:25;;;;;;;7.30;4.90;;;;;;;;;;5116932;28;20527;-57
2021/06/20 01:05:53;;;;;;;5.60;5.10;;;;;;;;;;5117143;28;20446;-59
2021/06/20 01:08:21;;;;;;;6.10;5.50;;;;;;;;;;5117248;28;20486;-58
2021/06/20 01:10:49;;;;;;;5.80;5.30;;;;;;;;;;5116904;28;20448;-58
2021/06/20 01:13:18;;;;;;;5.13;4.73;;;;;;;;;;5116908;28;20952;-58
2021/06/20 01:15:46;;;;;;;5.47;4.97;;;;;;;;;;5116725;28;20498;-58
2021/06/20 01:18:14;;;;;;;5.50;5.00;;;;;;;;;;5116996;28;20445;-57
2021/06/20 01:20:41;;;;;;;4.83;4.43;;;;;;;;;;5116931;28;20444;-58
2021/06/20 01:23:10;;;;;;;6.50;5.90;;;;;;;;;;5116602;28;20460;-59
2021/06/20 01:25:39;;;;;;;5.40;4.90;;;;;;;;;;5116934;28;20444;-58
2021/06/20 01:28:08;;;;;;;6.47;5.80;;;;;;;;;;5116917;28;20505;-57
2021/06/20 01:30:37;;;;;;;5.87;5.37;;;;;;;;;;5116767;28;20441;-58
2021/06/20 01:33:06;;;;;;;6.80;5.40;;;;;;;;;;5116690;28;20481;-58
2021/06/20 01:35:33;;;;;;;6.00;5.13;;;;;;;;;;5115637;28;20932;-58
2021/06/20 01:38:02;;;;;;;6.00;5.50;;;;;;;;;;5116201;28;20448;-59
2021/06/20 01:40:30;;;;;;;5.57;5.00;;;;;;;;;;5116497;28;20453;-59
2021/06/20 01:42:58;;;;;;;6.63;5.60;;;;;;;;;;5116521;28;20473;-58
2021/06/20 01:45:26;;;;;;;6.70;5.10;;;;;;;;;;5116613;28;20540;-58
2021/06/20 01:47:55;;;;;;;10.90;4.90;;;;;;;;;;5116746;28;20905;-58
2021/06/20 01:50:22;;;;;;;5.43;4.93;;;;;;;;;;5116312;28;20992;-58
2021/06/20 01:52:59;;;;;;;5.90;5.30;;;;;;;;;;5115893;28;20523;-58
2021/06/20 01:55:27;;;;;;;5.33;4.83;;;;;;;;;;5116749;28;20441;-58
2021/06/20 01:57:55;;;;;;;5.50;5.00;;;;;;;;;;5116180;28;20942;-58
2021/06/20 02:00:23;;;;;;;5.57;4.73;;;;;;;;;;5115962;28;20501;-58
2021/06/20 02:02:50;;;;;;;8.50;5.67;;;;;;;;;;5117253;28;20535;-58
2021/06/20 02:05:17;;;;;;;5.50;5.10;;;;;;;;;;5119111;28;20463;-58
2021/06/20 02:07:44;;;;;;;5.47;5.07;;;;;;;;;;5118568;28;20456;-58
2021/06/20 02:10:13;;;;;;;7.67;5.17;;;;;;;;;;5119757;28;20441;-58
2021/06/20 02:12:40;;;;;;;6.03;4.73;;;;;;;;;;5118260;28;20726;-59
2021/06/20 02:15:11;;;;;;;5.73;4.83;;;;;;;;;;5116115;28;20937;-59
2021/06/20 02:17:38;;;;;;;5.83;5.30;;;;;;;;;;5116234;28;20479;-58
2021/06/20 02:20:07;;;;;;;6.80;5.40;;;;;;;;;;5115881;28;20441;-58
2021/06/20 02:22:34;;;;;;;5.93;4.63;;;;;;;;;;5115698;28;20520;-59
2021/06/20 02:25:01;;;;;;;7.47;5.23;;;;;;;;;;5115614;28;20982;-58
2021/06/20 02:27:29;;;;;;;5.23;4.80;;;;;;;;;;5115866;28;20445;-59
2021/06/20 02:29:56;;;;;;;6.10;5.57;;;;;;;;;;5116194;28;20445;-59
2021/06/20 02:32:26;;;;;;;7.50;5.47;;;;;;;;;;5115642;28;20510;-59
2021/06/20 02:34:54;;;;;;;7.23;6.53;;;;;;;;;;5115296;28;20480;-58
2021/06/20 02:37:21;;;;;;;7.00;6.27;;;;;;;;;;5115752;28;20817;-59
2021/06/20 02:39:49;;;;;;;9.07;6.00;;;;;;;;;;5117762;28;20503;-58
2021/06/20 02:42:16;;;;;;;8.10;5.97;;;;;;;;;;5118690;28;20445;-58
2021/06/20 02:44:43;;;;;;;6.20;5.70;;;;;;;;;;5118705;28;20449;-58
2021/06/20 02:47:11;;;;;;;6.43;5.83;;;;;;;;;;5114729;28;20501;-58
2021/06/20 02:49:40;;;;;;;5.60;5.10;;;;;;;;;;5115952;28;20823;-59
2021/06/20 02:52:09;;;;;;;5.30;4.40;;;;;;;;;;5115613;28;20497;-58
2021/06/20 02:54:36;;;;;;;4.17;3.77;;;;;;;;;;5115718;28;20486;-59
2021/06/20 02:57:04;;;;;;;4.33;3.43;;;;;;;;;;5115249;28;20447;-60
2021/06/20 02:59:31;;;;;;;6.40;3.60;;;;;;;;;;5115482;28;20448;-60
2021/06/20 03:02:00;;;;;;;3.33;2.37;;;;;;;;;;5115532;28;20437;-60
2021/06/20 03:04:27;;;;;;;7.80;3.10;;;;;;;;;;5114517;28;20457;-60
2021/06/20 03:06:55;;;;;;;4.17;2.13;;;;;;;;;;5114404;28;20937;-61
2021/06/20 03:09:23;;;;;;;5.03;2.20;;;;;;;;;;5114572;28;20929;-61
2021/06/20 03:11:50;;;;;;;5.17;1.83;;;;;;;;;;5114541;28;20502;-61
2021/06/20 03:14:17;;;;;;;4.80;2.07;;;;;;;;;;5114682;28;20530;-61
2021/06/20 03:16:45;;;;;;;4.47;2.00;;;;;;;;;;5115634;28;20499;-61
2021/06/20 03:19:13;;;;;;;2.70;1.53;;;;;;;;;;5114440;28;20866;-61
2021/06/20 03:21:42;;;;;;;4.77;1.97;;;;;;;;;;5114816;28;20441;-61
2021/06/20 03:24:11;;;;;;;4.73;2.00;;;;;;;;;;5114723;28;20491;-60
2021/06/20 03:26:40;;;;;;;4.37;2.30;;;;;;;;;;5114588;28;20794;-60
2021/06/20 03:29:07;;;;;;;3.50;1.60;;;;;;;;;;5114712;28;20502;-60
2021/06/20 03:31:34;;;;;;;5.20;1.50;;;;;;;;;;5114247;28;20498;-59
2021/06/20 03:34:01;;;;;;;2.73;1.40;;;;;;;;;;5114397;28;20546;-60
2021/06/20 03:36:29;;;;;;;6.90;2.60;;;;;;;;;;5115100;28;20506;-60
2021/06/20 03:38:58;;;;;;;6.53;2.17;;;;;;;;;;5114166;28;21013;-60
2021/06/20 03:41:26;;;;;;;7.20;3.10;;;;;;;;;;5114356;28;20495;-61
2021/06/20 03:43:53;;;;;;;8.80;2.50;;;;;;;;;;5114275;28;20577;-61
2021/06/20 03:46:21;;;;;;;6.00;2.60;;;;;;;;;;5114143;28;20445;-61
2021/06/20 03:48:48;;;;;;;8.20;2.57;;;;;;;;;;5114359;28;20810;-59
2021/06/20 03:51:16;;;;;;;8.17;3.50;;;;;;;;;;5113763;28;21050;-60
2021/06/20 03:53:45;;;;;;;6.70;2.70;;;;;;;;;;5113898;28;20531;-59
2021/06/20 03:56:12;;;;;;;5.77;2.97;;;;;;;;;;5113753;28;20502;-60
2021/06/20 03:58:41;;;;;;;8.80;3.17;;;;;;;;;;5113699;28;20514;-61
2021/06/20 04:01:09;;;;;;;9.97;3.83;;;;;;;;;;5113750;28;20494;-59
2021/06/20 04:03:36;;;;;;;7.07;3.07;;;;;;;;;;5113525;28;20466;-60
2021/06/20 04:08:15;;;;;;;9.80;3.57;;;;;;;;;;5153056;27;21027;-61
2021/06/20 04:10:42;;;;;;;8.70;3.40;;;;;;;;;;5152412;27;20440;-61
2021/06/20 04:13:10;;;;;;;6.30;3.43;;;;;;;;;;5151964;27;20512;-61
2021/06/20 04:15:37;;;;;;;9.27;3.40;;;;;;;;;;5152433;27;20432;-61
2021/06/20 04:18:04;;;;;;;8.80;3.27;;;;;;;;;;5152367;27;20451;-61
2021/06/20 04:20:32;;;;;;;10.23;3.10;;;;;;;;;;5152275;27;20484;-60
2021/06/20 04:22:59;;;;;;;7.20;3.70;;;;;;;;;;5152113;27;20519;-62
2021/06/20 04:25:28;;;;;;;8.50;3.43;;;;;;;;;;5152233;27;20496;-61
2021/06/20 04:27:55;;;;;;;6.73;3.63;;;;;;;;;;5152268;27;20530;-61
2021/06/20 04:30:23;;;;;;;8.23;3.20;;;;;;;;;;5152714;27;20448;-61
2021/06/20 04:32:51;;;;;;;10.60;4.37;;;;;;;;;;5152131;27;20463;-61
2021/06/20 04:35:19;;;;;;;9.63;4.13;;;;;;;;;;5152301;27;20503;-60
2021/06/20 04:37:46;;;;;;;7.80;3.53;;;;;;;;;;5152572;27;20432;-61
2021/06/20 04:40:17;;;;;;;5.73;3.13;;;;;;;;;;5151802;27;20492;-61
2021/06/20 04:42:54;;;;;;;6.20;3.43;;;;;;;;;;5153423;27;20456;-60
2021/06/20 04:45:21;;;;;;;15.20;4.53;;;;;;;;;;5152326;27;20424;-61
2021/06/20 04:47:48;;;;;;;9.57;3.90;;;;;;;;;;5152361;27;20506;-61
2021/06/20 04:50:16;;;;;;;6.63;3.80;;;;;;;;;;5151753;27;20447;-62
2021/06/20 04:52:43;;;;;;;7.60;3.97;;;;;;;;;;5151330;27;21079;-61
2021/06/20 04:55:11;;;;;;;7.00;3.87;;;;;;;;;;5151256;27;20455;-61
2021/06/20 04:57:39;;;;;;;9.33;5.07;;;;;;;;;;5151467;27;20447;-61
2021/06/20 05:00:08;;;;;;;10.13;3.70;;;;;;;;;;5151122;27;20964;-61
2021/06/20 05:02:36;;;;;;;8.07;3.70;;;;;;;;;;5151054;27;20463;-62
2021/06/20 05:05:04;;;;;;;8.43;4.30;;;;;;;;;;5151343;27;20481;-62
2021/06/20 05:07:32;;;;;;;12.03;3.93;;;;;;;;;;5150965;27;21024;-62
2021/06/20 05:09:59;;;;;;;10.67;4.33;;;;;;;;;;5151034;27;20444;-61
2021/06/20 05:12:26;;;;;;;9.83;4.03;;;;;;;;;;5150919;27;20463;-62
2021/06/20 05:14:53;;;;;;;12.27;4.87;;;;;;;;;;5150902;27;20477;-61
2021/06/20 05:17:22;;;;;;;11.70;4.40;;;;;;;;;;5150738;27;20439;-61
2021/06/20 05:19:49;;;;;;;11.20;5.07;;;;;;;;;;5136606;27;20854;-61
2021/06/20 05:22:18;;;;;;;11.83;4.60;;;;;;;;;;5136899;27;20489;-61
2021/06/20 05:24:46;;;;;;;6.97;4.23;;;;;;;;;;5137229;27;20532;-61
2021/06/20 05:27:13;;;;;;;10.10;4.60;;;;;;;;;;5137132;27;20479;-61
2021/06/20 05:29:40;;;;;;;11.90;4.70;;;;;;;;;;5136780;27;20437;-60
2021/06/20 05:32:08;;;;;;;8.97;4.87;;;;;;;;;;5136991;27;20820;-63
2021/06/20 05:34:37;;;;;;;8.77;4.70;;;;;;;;;;5136658;27;20505;-61
2021/06/20 05:37:04;;;;;;;7.60;4.23;;;;;;;;;;5136931;27;20487;-61
2021/06/20 05:39:31;;;;;;;10.70;4.20;;;;;;;;;;5136623;27;20436;-61
2021/06/20 05:41:59;;;;;;;11.67;5.10;;;;;;;;;;5136870;27;20448;-61
2021/06/20 05:44:26;;;;;;;7.37;4.47;;;;;;;;;;5136698;27;20591;-61
2021/06/20 05:46:53;;;;;;;8.73;4.60;;;;;;;;;;5136678;27;20477;-60
2021/06/20 05:49:21;;;;;;;9.33;4.50;;;;;;;;;;5136541;27;20931;-62
2021/06/20 05:51:49;;;;;;;9.23;4.40;;;;;;;;;;5136398;27;20857;-61
2021/06/20 05:54:17;;;;;;;9.57;4.30;;;;;;;;;;5136475;27;20464;-60
2021/06/20 05:56:44;;;;;;;7.07;4.37;;;;;;;;;;5136583;27;20436;-60
2021/06/20 05:59:11;;;;;;;8.20;4.07;;;;;;;;;;5136501;27;20448;-60
2021/06/20 06:01:39;;;;;;;7.50;4.33;;;;;;;;;;5136204;27;20999;-59
2021/06/20 06:04:06;;;;;;;9.67;4.37;;;;;;;;;;5136485;27;20469;-59
2021/06/20 06:06:33;;;;;;;8.67;4.20;;;;;;;;;;5136321;27;20514;-60
2021/06/20 06:09:02;;;;;;;8.40;3.50;;;;;;;;;;5136517;27;20455;-60
2021/06/20 06:11:29;;;;;;;9.67;3.63;;;;;;;;;;5136603;27;20448;-61
2021/06/20 06:13:56;;;;;;;7.57;4.27;;;;;;;;;;5136266;27;20475;-60
2021/06/20 06:16:24;;;;;;;7.00;3.90;;;;;;;;;;5136029;27;20500;-60
2021/06/20 06:18:51;;;;;;;10.30;5.47;;;;;;;;;;5136466;27;20439;-60
2021/06/20 06:21:18;;;;;;;10.60;4.13;;;;;;;;;;5136577;27;20792;-61
2021/06/20 06:23:46;;;;;;;6.73;4.03;;;;;;;;;;5135800;27;20994;-61
2021/06/20 06:26:14;;;;;;;7.20;3.77;;;;;;;;;;5135861;27;20924;-61
2021/06/20 06:28:41;;;;;;;12.23;3.93;;;;;;;;;;5136020;27;20879;-60
2021/06/20 06:31:09;;;;;;;7.33;3.90;;;;;;;;;;5134746;27;20968;-61
2021/06/20 06:33:36;;;;;;;11.10;4.30;;;;;;;;;;5135833;27;20463;-61
2021/06/20 06:36:03;;;;;;;12.23;4.83;;;;;;;;;;5136097;27;20495;-61
2021/06/20 06:38:30;;;;;;;9.03;3.30;;;;;;;;;;5135987;27;20438;-61
2021/06/20 06:40:58;;;;;;;8.17;3.57;;;;;;;;;;5135848;27;20446;-61
2021/06/20 06:43:26;;;;;;;8.97;4.23;;;;;;;;;;5135455;27;20813;-61
2021/06/20 06:45:53;;;;;;;4.87;3.07;;;;;;;;;;5135389;27;20444;-61
2021/06/20 06:48:21;;;;;;;6.57;3.10;;;;;;;;;;5135717;27;20474;-62
2021/06/20 06:50:48;;;;;;;7.73;3.47;;;;;;;;;;5136048;27;20468;-61
2021/06/20 06:53:15;;;;;;;8.17;3.70;;;;;;;;;;5135464;27;20470;-61
2021/06/20 06:55:42;;;;;;;7.60;3.73;;;;;;;;;;5136030;27;20495;-60
2021/06/20 06:58:10;;;;;;;7.67;4.13;;;;;;;;;;5135660;27;20849;-61
2021/06/20 07:00:38;;;;;;;5.30;3.57;;;;;;;;;;5136044;27;20498;-60
2021/06/20 07:03:06;;;;;;;5.37;2.77;;;;;;;;;;5135847;27;20461;-61
2021/06/20 07:05:33;;;;;;;9.20;3.90;;;;;;;;;;5135732;27;20502;-60
2021/06/20 07:08:00;;;;;;;7.70;3.80;;;;;;;;;;5135012;27;20917;-61
2021/06/20 07:10:27;;;;;;;6.20;3.00;;;;;;;;;;5135039;27;20924;-61
2021/06/20 07:12:55;;;;;;;6.90;3.63;;;;;;;;;;5135000;27;20465;-60
2021/06/20 07:15:22;;;;;;;4.60;3.10;;;;;;;;;;5135376;27;20475;-61
2021/06/20 07:17:51;;;;;;;7.57;3.40;;;;;;;;;;5135174;27;20477;-61
2021/06/20 07:20:18;;;;;;;5.67;2.70;;;;;;;;;;5134882;27;20439;-59
2021/06/20 07:22:46;;;;;;;6.63;3.77;;;;;;;;;;5134836;27;20465;-60
2021/06/20 07:25:14;;;;;;;5.13;3.20;;;;;;;;;;5134947;27;20532;-61
2021/06/20 07:27:42;;;;;;;5.37;3.90;;;;;;;;;;5134828;27;20481;-61
2021/06/20 07:30:10;;;;;;;6.83;3.77;;;;;;;;;;5134465;27;20470;-60
2021/06/20 07:32:37;;;;;;;6.07;3.40;;;;;;;;;;5134707;27;20468;-61
2021/06/20 07:35:07;;;;;;;7.57;4.33;;;;;;;;;;5134688;27;20493;-61
2021/06/20 07:37:35;;;;;;;5.40;3.87;;;;;;;;;;5134314;27;20495;-59
2021/06/20 07:40:02;;;;;;;4.53;3.20;;;;;;;;;;5135026;27;20595;-61
2021/06/20 07:42:29;;;;;;;5.03;4.40;;;;;;;;;;5134331;27;20523;-61
2021/06/20 07:44:57;;;;;;;7.10;3.97;;;;;;;;;;5134500;27;20883;-62
2021/06/20 07:47:24;;;;;;;6.17;3.80;;;;;;;;;;5134611;27;20832;-61
2021/06/20 07:49:51;;;;;;;7.37;3.57;;;;;;;;;;5134443;27;20491;-61
2021/06/20 07:52:20;;;;;;;7.30;3.60;;;;;;;;;;5133947;27;20976;-61
2021/06/20 07:54:50;;;;;;;5.10;4.00;;;;;;;;;;5134324;27;20454;-61
2021/06/20 07:57:18;;;;;;;6.23;3.60;;;;;;;;;;5134333;27;20462;-61
2021/06/20 07:59:45;;;;;;;7.10;3.57;;;;;;;;;;5134354;27;20446;-61
2021/06/20 08:02:13;;;;;;;3.70;3.10;;;;;;;;;;5133789;27;20537;-60
2021/06/20 08:04:40;;;;;;;6.87;4.10;;;;;;;;;;5133971;27;20994;-61
2021/06/20 08:07:08;;;;;;;5.43;3.73;;;;;;;;;;5134417;27;20887;-60
2021/06/20 08:09:36;;;;;;;7.03;3.13;;;;;;;;;;5134014;28;20446;-60
2021/06/20 08:12:04;;;;;;;4.80;3.63;;;;;;;;;;5134114;28;20844;-62
2021/06/20 08:14:31;;;;;;;6.50;3.73;;;;;;;;;;5134089;28;20443;-61
2021/06/20 08:16:58;;;;;;;5.90;3.60;;;;;;;;;;5133899;28;20447;-60
2021/06/20 08:19:26;;;;;;;5.80;3.50;;;;;;;;;;5134337;28;20443;-61
2021/06/20 08:21:53;;;;;;;6.67;3.30;;;;;;;;;;5134287;28;20448;-60
2021/06/20 08:24:21;;;;;;;4.23;3.30;;;;;;;;;;5134367;28;20508;-61
2021/06/20 08:26:49;;;;;;;5.53;3.50;;;;;;;;;;5134440;28;20494;-61
2021/06/20 08:29:17;;;;;;;6.00;3.23;;;;;;;;;;5134723;28;20483;-61
2021/06/20 08:31:44;;;;;;;6.40;3.70;;;;;;;;;;5134892;28;20441;-60
2021/06/20 08:34:11;;;;;;;4.90;3.40;;;;;;;;;;5134408;28;20475;-60
2021/06/20 08:36:39;;;;;;;8.53;3.47;;;;;;;;;;5134251;28;21036;-58
2021/06/20 08:39:07;;;;;;;8.10;3.57;;;;;;;;;;5133929;28;20935;-59
2021/06/20 08:41:34;;;;;;;3.83;3.20;;;;;;;;;;5134089;28;20439;-59
2021/06/20 08:44:03;;;;;;;3.87;2.60;;;;;;;;;;5133924;28;20517;-60
2021/06/20 08:46:30;;;;;;;5.43;3.27;;;;;;;;;;5134131;28;20516;-60
2021/06/20 08:49:02;;;;;;;5.53;3.83;;;;;;;;;;5133789;28;20999;-62
2021/06/20 08:51:30;;;;;;;5.43;3.30;;;;;;;;;;5134070;27;21035;-61
2021/06/20 08:53:59;;;;;;;6.53;3.47;;;;;;;;;;5136355;27;20520;-61
2021/06/20 08:56:26;;;;;;;4.83;3.57;;;;;;;;;;5137552;27;20553;-61
2021/06/20 08:58:56;;;;;;;4.60;3.47;;;;;;;;;;5137854;27;20444;-61
2021/06/20 09:01:26;;;;;;;4.57;3.53;;;;;;;;;;5138287;27;20437;-62
2021/06/20 09:03:53;;;;;;;4.03;3.07;;;;;;;;;;5137826;27;20470;-60
2021/06/20 09:06:23;;;;;;;3.90;3.50;;;;;;;;;;5137771;27;20554;-60
2021/06/20 09:08:52;;;;;;;4.00;3.23;;;;;;;;;;5137363;27;20931;-61
2021/06/20 09:11:27;;;;;;;4.30;3.47;;;;;;;;;;5137854;27;20449;-61
2021/06/20 09:14:05;;;;;;;5.50;3.80;;;;;;;;;;5137922;27;20465;-60
2021/06/20 09:16:34;;;;;;;8.03;4.00;;;;;;;;;;5137616;27;20431;-61
2021/06/20 09:19:01;;;;;;;3.20;2.90;;;;;;;;;;5138357;27;20448;-60
2021/06/20 09:21:29;;;;;;;5.30;3.13;;;;;;;;;;5137884;27;20479;-61
2021/06/20 09:23:58;;;;;;;4.37;3.50;;;;;;;;;;5137547;27;20533;-58
2021/06/20 09:26:38;;;;;;;3.53;2.90;;;;;;;;;;5137217;27;20448;-59
2021/06/20 09:29:06;;;;;;;4.97;3.50;;;;;;;;;;5137222;27;20917;-61
2021/06/20 09:31:53;;;;;;;5.03;3.53;;;;;;;;;;5137012;27;20450;-61
2021/06/20 09:34:23;;;;;;;4.03;3.10;;;;;;;;;;5136415;27;20463;-60
2021/06/20 09:37:00;;;;;;;4.63;3.10;;;;;;;;;;5136779;27;20447;-61
2021/06/20 09:39:28;;;;;;;3.67;3.30;;;;;;;;;;5136966;27;20432;-62
2021/06/20 09:42:00;;;;;;;3.83;3.27;;;;;;;;;;5137106;27;20449;-62
2021/06/20 09:44:42;;;;;;;4.73;3.60;;;;;;;;;;5136523;27;20521;-60
2021/06/20 09:47:12;;;;;;;4.63;3.37;;;;;;;;;;5136213;27;20491;-59
2021/06/20 09:49:40;;;;;;;4.40;3.23;;;;;;;;;;5136607;27;20482;-61
2021/06/20 09:52:10;;;;;;;3.63;3.07;;;;;;;;;;5136873;27;20946;-61
2021/06/20 09:54:44;;;;;;;5.23;2.90;;;;;;;;;;5136832;27;20452;-62
2021/06/20 09:57:16;;;;;;;3.23;2.93;;;;;;;;;;5136722;27;20428;-61
2021/06/20 09:59:44;;;;;;;4.73;3.53;;;;;;;;;;5136890;27;20833;-62
2021/06/20 10:02:15;;;;;;;4.70;3.20;;;;;;;;;;5136342;27;20447;-61
2021/06/20 10:04:43;;;;;;;4.00;3.03;;;;;;;;;;5136690;27;20456;-61
2021/06/20 10:07:10;;;;;;;3.37;2.97;;;;;;;;;;5135909;27;20471;-61
2021/06/20 10:09:38;;;;;;;6.83;3.33;;;;;;;;;;5136268;27;20479;-59
2021/06/20 10:12:06;;;;;;;5.60;3.50;;;;;;;;;;5135924;27;20494;-60
2021/06/20 10:14:34;;;;;;;3.33;3.00;;;;;;;;;;5135807;27;20492;-60
2021/06/20 10:17:06;;;;;;;4.17;3.70;;;;;;;;;;5135619;27;20453;-61
2021/06/20 10:19:40;;;;;;;4.10;3.30;;;;;;;;;;5136090;27;20427;-60
2021/06/20 10:22:09;;;;;;;4.00;3.60;;;;;;;;;;5135994;27;20431;-60
2021/06/20 10:24:45;;;;;;;4.97;3.53;;;;;;;;;;5135966;27;20443;-59
2021/06/20 10:27:16;;;;;;;3.90;3.50;;;;;;;;;;5135579;27;20467;-61
2021/06/20 10:29:43;;;;;;;4.90;3.40;;;;;;;;;;5135861;27;20490;-61
2021/06/20 10:32:18;;;;;;;4.07;3.50;;;;;;;;;;5135864;27;20446;-61
2021/06/20 10:34:54;;;;;;;6.57;4.43;;;;;;;;;;5135607;27;20502;-60
2021/06/20 10:37:22;;;;;;;4.80;3.70;;;;;;;;;;5135655;27;20545;-59
2021/06/20 10:39:50;;;;;;;4.60;4.20;;;;;;;;;;5135695;27;20442;-60
2021/06/20 10:42:18;;;;;;;5.97;4.83;;;;;;;;;;5135563;27;20562;-60
2021/06/20 10:44:46;;;;;;;4.43;4.03;;;;;;;;;;5119887;22;20542;-55
2021/06/20 10:47:13;;;;;;;6.10;4.83;;;;;;;;;;5074049;28;20448;-56
2021/06/20 10:49:41;;;;;;;5.10;4.17;;;;;;;;;;5074029;28;20482;-57
2021/06/20 10:52:18;;;;;;;4.97;4.57;;;;;;;;;;5074199;28;20876;-55
2021/06/20 10:54:52;;;;;;;5.30;4.30;;;;;;;;;;5073919;28;20858;-55
2021/06/20 10:57:26;;;;;;;6.00;4.13;;;;;;;;;;5073909;28;20823;-53
2021/06/20 10:59:57;;;;;;;6.03;4.30;;;;;;;;;;5073449;28;20466;-55
2021/06/20 11:02:24;;;;;;;7.67;3.90;;;;;;;;;;5073654;28;21013;-55
2021/06/20 11:04:52;;;;;;;4.67;3.93;;;;;;;;;;5073905;28;20473;-55
2021/06/20 11:07:28;;;;;;;5.80;3.80;;;;;;;;;;5073816;28;20469;-56
2021/06/20 11:09:56;;;;;;;4.30;3.77;;;;;;;;;;5073826;28;20469;-54
2021/06/20 11:12:23;;;;;;;4.87;4.00;;;;;;;;;;5073976;28;20453;-55
2021/06/20 11:14:50;;;;;;;5.07;3.93;;;;;;;;;;5073625;28;20518;-55
2021/06/20 11:17:18;;;;;;;4.10;3.70;;;;;;;;;;5072933;28;20455;-55
2021/06/20 11:19:45;;;;;;;4.70;4.07;;;;;;;;;;5073620;28;20554;-55
2021/06/20 11:22:14;;;;;;;5.70;4.77;;;;;;;;;;5073784;28;20451;-55
2021/06/20 11:24:44;;;;;;;5.40;3.73;;;;;;;;;;5073127;28;21012;-55
2021/06/20 11:27:12;;;;;;;4.30;3.30;;;;;;;;;;5073503;28;20505;-55
2021/06/20 11:29:40;;;;;;;6.93;3.90;;;;;;;;;;5073125;28;21023;-55
2021/06/20 11:32:08;;;;;;;5.07;3.80;;;;;;;;;;5073534;28;20458;-55
2021/06/20 11:34:35;;;;;;;4.97;3.73;;;;;;;;;;5073332;28;20469;-53
2021/06/20 11:37:02;;;;;;;3.43;3.13;;;;;;;;;;5073232;28;20544;-55
2021/06/20 11:39:36;;;;;;;3.47;3.17;;;;;;;;;;5073151;28;20449;-55
2021/06/20 11:42:05;;;;;;;5.80;3.33;;;;;;;;;;5073454;28;20536;-55
2021/06/20 11:44:32;;;;;;;3.77;3.47;;;;;;;;;;5072792;28;20533;-55
2021/06/20 11:46:59;;;;;;;6.60;3.23;;;;;;;;;;5073065;28;20441;-55
2021/06/20 11:49:27;;;;;;;3.13;2.70;;;;;;;;;;5073095;28;20481;-55
2021/06/20 11:51:57;;;;;;;6.17;3.20;;;;;;;;;;5072768;28;20452;-55
2021/06/20 11:54:25;;;;;;;3.07;2.77;;;;;;;;;;5073467;28;20460;-55
2021/06/20 11:56:53;;;;;;;4.13;3.30;;;;;;;;;;5073150;28;20451;-55
2021/06/20 11:59:32;;;;;;;3.60;3.30;;;;;;;;;;5073484;28;20440;-55
2021/06/20 12:01:59;;;;;;;4.03;2.90;;;;;;;;;;5073303;28;20450;-56
2021/06/20 12:04:28;;;;;;;3.20;2.90;;;;;;;;;;5072998;28;20469;-55
2021/06/20 12:06:55;;;;;;;3.33;2.93;;;;;;;;;;5072762;28;20448;-55
2021/06/20 12:09:23;;;;;;;3.83;3.10;;;;;;;;;;5073017;28;20529;-56
2021/06/20 12:11:57;;;;;;;2.60;2.40;;;;;;;;;;5073345;28;20471;-56
2021/06/20 12:14:25;;;;;;;3.87;2.70;;;;;;;;;;5073526;28;20459;-55
2021/06/20 12:16:55;;;;;;;3.20;2.50;;;;;;;;;;5073398;28;20453;-55
2021/06/20 12:19:23;;;;;;;3.23;2.63;;;;;;;;;;5073082;28;20468;-54
2021/06/20 12:21:51;;;;;;;4.90;2.40;;;;;;;;;;5072892;28;20857;-57
2021/06/20 12:24:19;;;;;;;2.60;2.40;;;;;;;;;;5072857;28;20472;-56
2021/06/20 12:26:50;;;;;;;4.30;2.10;;;;;;;;;;5072884;28;20460;-56
2021/06/20 12:29:18;;;;;;;2.67;2.13;;;;;;;;;;5075007;28;20996;-56
2021/06/20 12:32:00;;;;;;;3.40;2.30;;;;;;;;;;5077150;28;20453;-55
2021/06/20 12:34:28;;;;;;;2.60;2.40;;;;;;;;;;5076755;28;20489;-55
2021/06/20 12:36:59;;;;;;;2.30;2.10;;;;;;;;;;5076333;28;20939;-56
2021/06/20 12:39:26;;;;;;;3.07;2.10;;;;;;;;;;5076713;28;20450;-55
2021/06/20 12:42:00;;;;;;;2.63;2.03;;;;;;;;;;5076760;28;20437;-56
2021/06/20 12:44:38;;;;;;;2.40;2.20;;;;;;;;;;5076091;28;20544;-55
2021/06/20 12:47:06;;;;;;;3.00;2.07;;;;;;;;;;5076215;28;20490;-55
2021/06/20 12:49:33;;;;;;;3.30;2.13;;;;;;;;;;5076316;28;20519;-54
2021/06/20 12:52:01;;;;;;;5.17;2.23;;;;;;;;;;5076055;28;20444;-54
2021/06/20 12:54:37;;;;;;;3.97;2.50;;;;;;;;;;5076229;28;20460;-55
2021/06/20 12:57:06;;;;;;;5.43;2.73;;;;;;;;;;5076264;28;20477;-54
2021/06/20 12:59:37;;;;;;;6.07;2.47;;;;;;;;;;5076118;28;20441;-54
2021/06/20 13:02:06;;;;;;;2.70;2.50;;;;;;;;;;5076008;28;20429;-53
2021/06/20 13:04:35;;;;;;;2.93;2.63;;;;;;;;;;5075792;28;20948;-54
2021/06/20 13:07:02;;;;;;;2.87;2.10;;;;;;;;;;5075847;28;20507;-55
2021/06/20 13:09:30;;;;;;;2.70;2.10;;;;;;;;;;5075610;28;21058;-55
2021/06/20 13:11:57;;;;;;;2.33;2.20;;;;;;;;;;5075899;28;20535;-54
2021/06/20 13:14:29;;;;;;;2.13;1.90;;;;;;;;;;5076005;28;20467;-54
2021/06/20 13:16:56;;;;;;;3.27;2.50;;;;;;;;;;5075933;28;20437;-54
2021/06/20 13:19:24;;;;;;;2.67;2.37;;;;;;;;;;5075456;28;20928;-55
2021/06/20 13:21:52;;;;;;;2.70;2.50;;;;;;;;;;5075898;28;20451;-56
2021/06/20 13:24:20;;;;;;;3.97;2.30;;;;;;;;;;5075565;28;20461;-55
2021/06/20 13:26:47;;;;;;;2.70;2.40;;;;;;;;;;5075649;28;20443;-55
2021/06/20 13:29:15;;;;;;;2.57;1.80;;;;;;;;;;5075417;28;20535;-53
2021/06/20 13:31:44;;;;;;;3.60;2.10;;;;;;;;;;5075683;28;20453;-55
2021/06/20 13:34:11;;;;;;;2.70;1.93;;;;;;;;;;5075538;28;20469;-55
2021/06/20 13:36:38;;;;;;;1.83;1.73;;;;;;;;;;5075703;28;20450;-55
2021/06/20 13:39:07;;;;;;;3.03;1.90;;;;;;;;;;5075080;28;20505;-55
2021/06/20 13:41:34;;;;;;;3.23;2.00;;;;;;;;;;5074931;28;20787;-54
2021/06/20 13:44:01;;;;;;;2.43;1.60;;;;;;;;;;5075039;28;20993;-56
2021/06/20 13:46:29;;;;;;;2.43;2.20;;;;;;;;;;5075334;28;20454;-55
2021/06/20 13:48:56;;;;;;;2.90;2.20;;;;;;;;;;5075205;28;20454;-55
2021/06/20 13:51:23;;;;;;;2.00;1.90;;;;;;;;;;5074871;28;20531;-55
2021/06/20 13:53:52;;;;;;;3.53;2.27;;;;;;;;;;5074803;28;20494;-55
2021/06/20 13:56:21;;;;;;;3.20;2.40;;;;;;;;;;5075651;28;20545;-55
2021/06/20 13:58:48;;;;;;;2.70;2.50;;;;;;;;;;5075195;28;20452;-56
2021/06/20 14:01:15;;;;;;;3.00;1.93;;;;;;;;;;5074624;28;20453;-56
2021/06/20 14:03:43;;;;;;;2.20;1.93;;;;;;;;;;5075062;28;20476;-54
2021/06/20 14:06:10;;;;;;;2.20;2.00;;;;;;;;;;5074975;28;20453;-55
2021/06/20 14:08:37;;;;;;;1.73;1.63;;;;;;;;;;5074705;28;20507;-54
2021/06/20 14:11:04;;;;;;;2.10;1.90;;;;;;;;;;5074815;28;20501;-55
2021/06/20 14:13:33;;;;;;;2.83;2.50;;;;;;;;;;5074541;28;21015;-56
2021/06/20 14:16:00;;;;;;;2.23;2.00;;;;;;;;;;5075620;28;20850;-56
2021/06/20 14:18:27;;;;;;;5.67;2.00;;;;;;;;;;5074364;28;20446;-56
2021/06/20 14:20:55;;;;;;;1.90;1.70;;;;;;;;;;5074384;28;20439;-55
2021/06/20 14:23:23;;;;;;;2.80;2.13;;;;;;;;;;5074467;28;20550;-55
2021/06/20 14:25:50;;;;;;;3.13;1.80;;;;;;;;;;5074554;28;20486;-55
2021/06/20 14:28:17;;;;;;;1.73;1.63;;;;;;;;;;5074632;28;20445;-55
2021/06/20 14:30:47;;;;;;;2.40;2.20;;;;;;;;;;5074182;28;20472;-55
2021/06/20 14:33:14;;;;;;;2.20;2.00;;;;;;;;;;5074124;28;20541;-54
2021/06/20 14:35:41;;;;;;;3.83;2.53;;;;;;;;;;5074421;28;20451;-55
2021/06/20 14:38:08;;;;;;;2.20;2.00;;;;;;;;;;5073912;28;20945;-56
2021/06/20 14:40:36;;;;;;;2.10;1.90;;;;;;;;;;5074211;28;20490;-55
2021/06/20 14:43:06;;;;;;;3.10;2.03;;;;;;;;;;5073970;28;20449;-56
2021/06/20 14:45:33;;;;;;;2.00;1.90;;;;;;;;;;5073956;28;20428;-55
2021/06/20 14:48:02;;;;;;;2.53;2.30;;;;;;;;;;5073472;28;20921;-55
2021/06/20 14:50:29;;;;;;;3.60;2.30;;;;;;;;;;5073031;28;20474;-55
2021/06/20 14:52:57;;;;;;;2.37;2.17;;;;;;;;;;5073490;28;20614;-55